Terminal Aerodrome Forecast
Issued by NWS Wilmington, OH

Current Version | Previous Version | Text Only | Print | Product List | Glossary Off
Versions: 1 2 3 4 5 6 7 8 9 10 11 12 13 14

000
FTUS41 KILN 081100
TAFCMH
TAF
KCMH 081120Z 0812/0912 19011KT P6SM SCT025 BKN130
      TEMPO 0812/0814 20012G20KT BKN025
     FM081400 20011KT P6SM SCT040 BKN130
      TEMPO 0814/0816 20012G20KT 4SM -TSRA BR OVC035CB
     FM081600 23012G24KT P6SM BKN035
     FM082100 24014G26KT P6SM VCTS BKN035CB
     FM090200 27008KT P6SM BKN040
     FM090600 28005KT P6SM SCT040
      TEMPO 0909/0912 4SM BR SCT005=

USA.gov is the U.S. government's official web portal to all federal, state and local government web resources and services.